WetterOnline ( https://www.wetteronline.de )

Wetter aktuell Hasselfelde

Aktuelles Wetter: Braunlage (609m)

6-stündlich | Neueste Meldungen
Ortszeit Temperatur Wetter
Mo, 03.10. 2:00 8.8° C leichter Regen
So, 02.10. 20:00 9.2° C bedeckt
So, 02.10. 14:00 12.0° C wolkig
So, 02.10. 8:00 8.8° C bewölkt
So, 02.10. 2:00 8.7° C leichter Regen
Sa, 01.10. 20:00 8.5° C leicht bewölkt
Sa, 01.10. 14:00 8.1° C Sprühregen
Sa, 01.10. 8:00 6.5° C Regen
Ortszeit Temperatur Wetter
Mo, 03.10. 2:30 8.6° C Sprühregen
Mo, 03.10. 2:20 8.6° C Sprühregen
Mo, 03.10. 2:10 8.8° C Sprühregen
Mo, 03.10. 2:00 8.8° C leichter Regen
Mo, 03.10. 1:50 8.8° C leichter Regen
Mo, 03.10. 1:40 8.7° C bedeckt
Mo, 03.10. 1:30 8.7° C bewölkt
Mo, 03.10. 1:00 8.8° C bedeckt
Mo, 03.10. 0:30 8.8° C bedeckt
Mo, 03.10. 0:00 8.9° C bewölkt
So, 02.10. 23:30 9.0° C bedeckt
Ortszeit Relative Feuchte Sichtweite
Mo, 03.10. 2:00 85% 23 km
So, 02.10. 20:00 84% 45 km
So, 02.10. 14:00 74% 55 km
So, 02.10. 8:00 94% 16 km
So, 02.10. 2:00 93% 15 km
Sa, 01.10. 20:00 90% 55 km
Sa, 01.10. 14:00 97% 30 km
Sa, 01.10. 8:00 91% 9 km
Ortszeit Relative Feuchte Sichtweite
Mo, 03.10. 2:30 86% 30 km
Mo, 03.10. 2:20 86% -
Mo, 03.10. 2:10 85% -
Mo, 03.10. 2:00 85% 23 km
Mo, 03.10. 1:50 85% -
Mo, 03.10. 1:40 85% -
Mo, 03.10. 1:30 84% 35 km
Mo, 03.10. 1:00 83% 40 km
Mo, 03.10. 0:30 83% 40 km
Mo, 03.10. 0:00 84% 35 km
So, 02.10. 23:30 84% 35 km
Ortszeit Niederschlagsmenge Niederschlagsart
Mo, 03.10. 2:00 0.1 l/m2 in 6 Std. Regen
So, 02.10. 20:00 0.7 l/m2 in 12 Std. Regen
So, 02.10. 14:00 0.1 l/m2 in 6 Std. Regen
So, 02.10. 8:00 2 l/m2 in 12 Std. Regen
So, 02.10. 2:00 0.7 l/m2 in 6 Std. Regen
Sa, 01.10. 20:00 17 l/m2 in 12 Std. Regen
Sa, 01.10. 14:00 15 l/m2 in 6 Std. Regen
Sa, 01.10. 8:00 0.9 l/m2 in 12 Std. Regen, Niederschlag
Ortszeit Niederschlagsmenge Niederschlagsart
Mo, 03.10. 2:30 <0.05 l/m2 in 1 Std. -
Mo, 03.10. 2:20 keine Meldung -
Mo, 03.10. 2:10 keine Meldung -
Mo, 03.10. 2:00 <0.05 l/m2 in 1 Std. Regen
Mo, 03.10. 1:50 keine Meldung -
Mo, 03.10. 1:40 keine Meldung -
Mo, 03.10. 1:30 0.0 l/m2 in 1 Std. -
Mo, 03.10. 1:00 <0.05 l/m2 in 1 Std. Sprühregen
Mo, 03.10. 0:30 <0.05 l/m2 in 1 Std. Schnee
Mo, 03.10. 0:00 <0.05 l/m2 in 1 Std. Sprühregen
So, 02.10. 23:30 0.0 l/m2 in 1 Std. -
Ortszeit Stärke Spitze Richtung
km/h Bft. km/h Grad Sektor
Mo, 03.10. 2:00 11 2 29 300° NW
So, 02.10. 20:00 4 1 36 290° W
So, 02.10. 14:00 13 3 39 270° W
So, 02.10. 8:00 11 2 40 250° W
So, 02.10. 2:00 11 2 43 260° W
Sa, 01.10. 20:00 13 3 39 270° W
Sa, 01.10. 14:00 13 3 46 250° W
Sa, 01.10. 8:00 22 4 43 210° SW
Ortszeit Stärke Spitze Richtung
km/h Bft. km/h Grad Sektor
Mo, 03.10. 2:30 9 2 30 290° W
Mo, 03.10. 2:20 9 2 - 290° W
Mo, 03.10. 2:10 11 2 - 300° NW
Mo, 03.10. 2:00 11 2 25 300° NW
Mo, 03.10. 1:50 11 2 - 300° NW
Mo, 03.10. 1:40 11 2 - 300° NW
Mo, 03.10. 1:30 11 2 25 290° W
Mo, 03.10. 1:00 11 2 29 290° W
Mo, 03.10. 0:30 11 2 29 290° W
Mo, 03.10. 0:00 7 2 25 300° NW
So, 02.10. 23:30 11 2 26 290° W
Ortszeit Untergrenze Bedeckung Gattung
total tief tief mittel hoch
Mo, 03.10. 2:00 390 m 8/8 8/8 - - -
So, 02.10. 20:00 510 m 8/8 8/8 - - -
So, 02.10. 14:00 1800 m 7/8 1/8 - - -
So, 02.10. 8:00 150 m 7/8 7/8 - - -
So, 02.10. 2:00 150 m 7/8 7/8 - - -
Sa, 01.10. 20:00 420 m 4/8 4/8 - - -
Sa, 01.10. 14:00 60 m 8/8 8/8 - - -
Sa, 01.10. 8:00 360 m 8/8 8/8 - - -
Ortszeit Bedeckungsgrad in Achtel und Wolkenuntergrenze
Mo, 03.10. 2:30 7(450m) 7(630m) 8(840m)
Mo, 03.10. 2:20 7(450m) 7(630m) 8(840m)
Mo, 03.10. 2:10 8
Mo, 03.10. 2:00 5(390m) 7(540m) 8(990m)
Mo, 03.10. 1:50 5(390m) 7(540m) 8(990m)
Mo, 03.10. 1:40 8
Mo, 03.10. 1:30 5(450m) 7(750m) 7(900m)
Mo, 03.10. 1:00 7(480m) 7(660m) 8(810m)
Mo, 03.10. 0:30 5(480m) 7(660m) 8(780m)
Mo, 03.10. 0:00 5(450m) 7(600m) 7(810m)
So, 02.10. 23:30 4(420m) 7(750m) 8(1020m)
Ortszeit Luftdruck NN (hPa) Tendenz (hPa in 3 Std.)
Mo, 03.10. 2:00 1022 + 1,1
So, 02.10. 20:00 1019 + 2,2
So, 02.10. 14:00 1015 + 0,4
So, 02.10. 8:00 1015 + 0,4
So, 02.10. 2:00 1014 + 1,7
Sa, 01.10. 20:00 1009 + 2,5
Sa, 01.10. 14:00 1005 + 0,1
Sa, 01.10. 8:00 1007 - 1,8
Ortszeit Luftdruck NN (hPa) Tendenz (hPa in 3 Std.)
Mo, 03.10. 2:30 1022 + 1,0
Mo, 03.10. 2:20 1022 keine Meldung
Mo, 03.10. 2:10 1022 keine Meldung
Mo, 03.10. 2:00 1022 + 1,1
Mo, 03.10. 1:50 1022 keine Meldung
Mo, 03.10. 1:40 1022 keine Meldung
Mo, 03.10. 1:30 1022 + 1,2
Mo, 03.10. 1:00 1022 + 1,3
Mo, 03.10. 0:30 1022 + 1,6
Mo, 03.10. 0:00 1021 + 1,7
So, 02.10. 23:30 1021 + 1,6
Ortszeit Schneehöhe (cm)
Mo, 03.10. 2:00 0
So, 02.10. 20:00 0
So, 02.10. 14:00 0
So, 02.10. 8:00 0
So, 02.10. 2:00 0
Sa, 01.10. 20:00 0
Sa, 01.10. 14:00 0
Sa, 01.10. 8:00 0
Ortszeit Schneehöhe (cm)
Mo, 03.10. 2:30 0
Mo, 03.10. 2:20 0
Mo, 03.10. 2:10 0
Mo, 03.10. 2:00 0
Mo, 03.10. 1:50 0
Mo, 03.10. 1:40 0
Mo, 03.10. 1:30 0
Mo, 03.10. 1:00 0
Mo, 03.10. 0:30 0
Mo, 03.10. 0:00 0
So, 02.10. 23:30 0
Link zu dieser Seite / Seite empfehlen

Das Wetter in ...